Time;durP1;ratioP1;P1;durP2;ratioP2;P2;SDS_P1;SDS_P2;PMS_P1;PMS_P2;Temp;Humidity;BMP_temperature;BMP_pressure;BME280_temperature;BME280_humidity;BME280_pressure;Samples;Min_cycle;Max_cycle;Signal;HPM_P1;HPM_P2
2021/11/17 02:26:09;;;;;;;85.82;32.63;;;5.60;99.90;;;;;;5042989;28;20049;-51
2021/11/17 02:28:35;;;;;;;81.15;32.58;;;5.60;99.90;;;;;;5041209;28;20480;-48
2021/11/17 02:31:26;;;;;;;76.00;32.22;;;5.60;99.90;;;;;;5043218;28;20037;-49
2021/11/17 02:34:09;;;;;;;83.03;31.42;;;5.60;99.90;;;;;;5057426;28;20081;-50
2021/11/17 02:36:57;;;;;;;77.22;32.10;;;5.60;99.90;;;;;;5038885;28;20128;-50
2021/11/17 02:39:47;;;;;;;82.03;33.28;;;5.60;99.90;;;;;;5038030;28;20060;-46
2021/11/17 02:42:38;;;;;;;74.97;31.63;;;5.60;99.90;;;;;;5039710;28;20060;-47
2021/11/17 02:45:18;;;;;;;81.75;33.88;;;5.60;99.90;;;;;;5038024;28;21754;-47
2021/11/17 02:48:08;;;;;;;86.45;33.70;;;5.60;99.90;;;;;;5039175;28;20111;-47
2021/11/17 02:50:56;;;;;;;86.95;33.60;;;5.60;99.90;;;;;;5043864;28;20111;-49
2021/11/17 02:54:00;;;;;;;75.35;30.33;;;5.70;99.90;;;;;;5044282;28;20116;-50
2021/11/17 02:56:33;;;;;;;82.55;31.98;;;5.70;99.90;;;;;;5041928;28;20041;-46
2021/11/17 02:59:43;;;;;;;82.57;33.53;;;5.60;99.90;;;;;;5038525;28;20048;-47
2021/11/17 03:02:24;;;;;;;81.95;33.65;;;5.70;99.90;;;;;;5040870;28;20069;-46
2021/11/17 03:05:29;;;;;;;84.43;34.03;;;5.70;99.90;;;;;;5039850;28;20060;-48
2021/11/17 03:08:07;;;;;;;90.57;34.45;;;5.80;99.90;;;;;;5037959;28;20045;-50
2021/11/17 03:10:56;;;;;;;88.22;34.22;;;5.70;99.90;;;;;;5037075;28;20053;-51
2021/11/17 03:13:32;;;;;;;76.00;32.53;;;5.70;99.90;;;;;;5038883;28;20825;-50
2021/11/17 03:16:01;;;;;;;83.65;33.55;;;5.80;99.90;;;;;;5038612;28;20041;-45
2021/11/17 03:18:49;;;;;;;86.05;32.42;;;5.80;99.90;;;;;;5038722;28;20049;-50
2021/11/17 03:21:27;;;;;;;85.50;33.70;;;5.80;99.90;;;;;;5008147;28;20063;-47
2021/11/17 03:24:18;;;;;;;82.20;34.88;;;5.80;99.90;;;;;;5039520;28;20053;-46
2021/11/17 03:27:05;;;;;;;75.78;33.80;;;5.80;99.90;;;;;;5042639;28;20041;-47
2021/11/17 03:30:07;;;;;;;94.00;36.13;;;5.80;99.90;;;;;;5041140;28;20045;-50
2021/11/17 03:32:54;;;;;;;85.28;34.17;;;5.80;99.90;;;;;;5039856;28;20091;-46
2021/11/17 03:35:48;;;;;;;92.63;36.03;;;5.80;99.90;;;;;;5030196;28;20069;-46
2021/11/17 03:38:29;;;;;;;87.90;35.92;;;5.90;99.90;;;;;;5055275;28;20045;-51
2021/11/17 03:40:58;;;;;;;77.90;33.05;;;5.80;99.90;;;;;;5038525;28;20060;-48
2021/11/17 03:43:59;;;;;;;86.70;36.30;;;5.90;99.90;;;;;;5041936;28;20515;-46
2021/11/17 03:47:02;;;;;;;84.20;33.50;;;5.90;99.90;;;;;;5035230;28;20040;-52
2021/11/17 03:49:35;;;;;;;95.07;38.22;;;5.90;99.90;;;;;;5052165;28;20118;-48
2021/11/17 03:52:26;;;;;;;98.35;36.85;;;5.90;99.90;;;;;;5041330;28;20045;-45
2021/11/17 03:55:16;;;;;;;86.40;36.83;;;5.90;99.90;;;;;;5043134;28;20098;-46
2021/11/17 03:58:06;;;;;;;100.97;36.90;;;5.90;99.90;;;;;;5038260;28;20053;-48
2021/11/17 04:00:38;;;;;;;90.50;37.33;;;5.90;99.90;;;;;;5053304;28;20408;-48
2021/11/17 04:03:04;;;;;;;;;;;6.00;99.90;;;;;;5039222;28;20052;-48
2021/11/17 04:05:48;;;;;;;96.95;39.03;;;6.00;99.90;;;;;;5055208;28;19924;-49
2021/11/17 04:08:36;;;;;;;98.13;38.03;;;6.00;99.90;;;;;;5037982;28;20404;-53
2021/11/17 04:11:20;;;;;;;95.35;39.55;;;6.00;99.90;;;;;;5038558;28;20045;-49
2021/11/17 04:14:01;;;;;;;91.50;39.30;;;6.00;99.90;;;;;;5038106;28;20044;-49
2021/11/17 04:17:03;;;;;;;98.07;39.38;;;6.00;99.90;;;;;;5040082;28;20045;-50
2021/11/17 04:19:58;;;;;;;96.25;40.95;;;6.00;99.90;;;;;;4998619;28;20139;-51
2021/11/17 04:22:57;;;;;;;103.35;41.72;;;6.00;99.90;;;;;;4999621;28;20049;-49
2021/11/17 04:25:49;;;;;;;97.38;40.65;;;6.00;99.90;;;;;;4935581;29;20059;-51
2021/11/17 04:28:24;;;;;;;96.10;41.78;;;6.10;99.90;;;;;;4894461;29;20107;-48
2021/11/17 04:31:12;;;;;;;108.85;43.17;;;6.10;99.90;;;;;;4892611;29;20084;-48
2021/11/17 04:34:25;;;;;;;106.60;42.53;;;6.10;99.90;;;;;;4897818;29;20503;-46
2021/11/17 04:37:17;;;;;;;104.90;41.90;;;6.10;99.90;;;;;;4850215;29;20037;-51
2021/11/17 04:40:09;;;;;;;112.25;42.63;;;6.10;99.90;;;;;;5105855;27;1970558;-47
2021/11/17 04:43:15;;;;;;;119.93;43.78;;;6.10;99.90;;;;;;5135600;27;20551;-50
2021/11/17 04:46:18;;;;;;;112.28;43.67;;;6.10;99.90;;;;;;5160338;27;20507;-49
2021/11/17 04:49:09;;;;;;;115.43;44.13;;;6.10;99.90;;;;;;5161114;27;20089;-52
2021/11/17 04:52:12;;;;;;;122.97;44.03;;;6.10;99.90;;;;;;5142144;27;20557;-51
2021/11/17 04:55:05;;;;;;;104.13;44.22;;;6.10;99.90;;;;;;5085326;28;20494;-49
2021/11/17 04:58:10;;;;;;;128.80;45.35;;;6.10;99.90;;;;;;5075536;28;20083;-49
2021/11/17 05:01:06;;;;;;;115.85;44.67;;;6.20;99.90;;;;;;5021426;28;20497;-48
2021/11/17 05:04:02;;;;;;;115.63;45.60;;;6.20;99.90;;;;;;5038999;28;20056;-49
2021/11/17 05:06:28;;;;;;;104.95;44.15;;;6.20;99.90;;;;;;5037068;28;20049;-50
2021/11/17 05:09:09;;;;;;;120.07;45.65;;;6.20;99.90;;;;;;5038105;28;20052;-49
2021/11/17 05:12:04;;;;;;;97.45;41.78;;;6.20;99.90;;;;;;5038861;28;20049;-48
2021/11/17 05:14:38;;;;;;;107.85;42.50;;;6.20;99.90;;;;;;5021172;28;20049;-51
2021/11/17 05:17:16;;;;;;;93.88;40.08;;;6.20;99.90;;;;;;5037364;28;20128;-52
2021/11/17 05:19:47;;;;;;;104.15;44.00;;;6.20;99.90;;;;;;5020830;28;20108;-51
2021/11/17 05:22:22;;;;;;;104.50;42.33;;;6.20;99.90;;;;;;5037484;28;20401;-49
2021/11/17 05:24:57;;;;;;;103.72;40.53;;;6.20;99.90;;;;;;5037838;28;20048;-52
2021/11/17 05:27:45;;;;;;;98.32;40.28;;;6.30;99.90;;;;;;5037647;28;20161;-51
2021/11/17 05:30:48;;;;;;;101.30;41.78;;;6.30;99.90;;;;;;5038526;28;20057;-48
2021/11/17 05:33:20;;;;;;;96.90;40.35;;;6.30;99.90;;;;;;5075055;28;20048;-49
2021/11/17 05:36:01;;;;;;;100.80;41.35;;;6.30;99.90;;;;;;5078247;28;20048;-49
2021/11/17 05:38:48;;;;;;;101.35;41.67;;;6.30;99.90;;;;;;5145135;27;20087;-48
2021/11/17 05:41:39;;;;;;;103.78;41.78;;;6.40;99.90;;;;;;5159016;27;20118;-45
2021/11/17 05:44:23;;;;;;;106.32;45.13;;;6.30;99.90;;;;;;5090514;27;20035;-50
2021/11/17 05:46:55;;;;;;;119.28;45.80;;;6.40;99.90;;;;;;5159769;27;20130;-49
2021/11/17 05:49:30;;;;;;;109.55;44.75;;;6.40;99.90;;;;;;5158081;27;20042;-51
2021/11/17 05:52:47;;;;;;;107.28;44.63;;;6.40;99.90;;;;;;5145370;27;20459;-50
2021/11/17 05:55:34;;;;;;;106.05;46.60;;;6.40;99.90;;;;;;5102443;28;20043;-47
2021/11/17 05:58:05;;;;;;;104.03;44.88;;;6.40;99.90;;;;;;5082073;28;20055;-46
2021/11/17 06:00:50;;;;;;;118.23;46.73;;;6.40;99.90;;;;;;5084492;28;20455;-47
2021/11/17 06:03:30;;;;;;;109.72;47.20;;;6.40;99.90;;;;;;5080803;28;20040;-51
2021/11/17 06:05:55;;;;;;;110.43;47.20;;;6.40;99.90;;;;;;5073807;28;20044;-48
2021/11/17 06:08:21;;;;;;;114.07;46.90;;;6.50;99.90;;;;;;5084789;28;20395;-51
2021/11/17 06:10:51;;;;;;;108.25;46.17;;;6.40;99.90;;;;;;5101000;28;20058;-48
2021/11/17 06:13:18;;;;;;;110.18;47.17;;;6.50;99.90;;;;;;5099447;28;20047;-48
2021/11/17 06:15:46;;;;;;;117.80;48.10;;;6.50;99.90;;;;;;5084057;28;20035;-48
2021/11/17 06:18:18;;;;;;;116.53;47.22;;;6.50;99.90;;;;;;5085120;28;20047;-49
2021/11/17 06:20:47;;;;;;;118.43;49.00;;;6.50;99.90;;;;;;5081748;28;20040;-48
2021/11/17 06:23:20;;;;;;;113.70;48.50;;;6.60;99.90;;;;;;5081802;28;20249;-50
2021/11/17 06:25:46;;;;;;;113.63;49.15;;;6.60;99.90;;;;;;5089270;28;20074;-50
2021/11/17 06:28:19;;;;;;;121.45;50.40;;;6.50;99.90;;;;;;5108248;28;20055;-47
2021/11/17 06:30:46;;;;;;;119.25;49.58;;;6.60;99.90;;;;;;5127869;27;20034;-48
2021/11/17 06:33:12;;;;;;;117.18;50.38;;;6.60;99.90;;;;;;5079923;27;20046;-49
2021/11/17 06:35:40;;;;;;;121.03;51.60;;;6.60;99.90;;;;;;5152207;27;20050;-47
2021/11/17 06:38:07;;;;;;;120.13;52.25;;;6.60;99.90;;;;;;5151017;27;20042;-46
2021/11/17 06:40:35;;;;;;;119.40;50.80;;;6.60;99.90;;;;;;5151669;27;20047;-48
2021/11/17 06:43:03;;;;;;;122.85;50.58;;;6.60;99.90;;;;;;5145970;27;20145;-47
2021/11/17 06:45:32;;;;;;;114.82;50.33;;;6.60;99.90;;;;;;5151910;27;20047;-51
2021/11/17 06:47:59;;;;;;;117.40;51.60;;;6.60;99.90;;;;;;5124995;27;20111;-52
2021/11/17 06:50:26;;;;;;;119.57;53.13;;;6.60;99.90;;;;;;5149390;27;20050;-49
2021/11/17 06:52:52;;;;;;;121.68;52.83;;;6.70;99.90;;;;;;5149398;27;20112;-54
2021/11/17 06:55:18;;;;;;;111.18;48.63;;;6.60;99.90;;;;;;5132433;27;20054;-49
2021/11/17 06:57:45;;;;;;;108.88;50.85;;;6.60;99.90;;;;;;5131320;27;20062;-51
2021/11/17 07:00:16;;;;;;;116.03;51.08;;;6.70;99.90;;;;;;5129697;27;20042;-49
2021/11/17 07:02:42;;;;;;;113.88;48.55;;;6.60;99.90;;;;;;5129509;27;20096;-46
2021/11/17 07:05:10;;;;;;;114.95;50.05;;;6.70;99.90;;;;;;5107636;27;20039;-49
2021/11/17 07:07:37;;;;;;;107.63;51.13;;;6.70;99.90;;;;;;5151507;27;20055;-48
2021/11/17 07:10:05;;;;;;;111.57;52.00;;;6.70;99.90;;;;;;5146861;27;20374;-48
2021/11/17 07:12:31;;;;;;;104.68;48.90;;;6.70;99.90;;;;;;5117378;27;20039;-51
2021/11/17 07:14:57;;;;;;;110.63;51.20;;;6.70;99.90;;;;;;5130285;27;20035;-51
2021/11/17 07:17:23;;;;;;;110.80;49.67;;;6.70;99.90;;;;;;5131342;27;20047;-48
2021/11/17 07:19:49;;;;;;;114.78;51.33;;;6.70;99.90;;;;;;5147151;27;20061;-48
2021/11/17 07:22:16;;;;;;;110.47;49.40;;;6.70;99.90;;;;;;5150709;27;20501;-49
2021/11/17 07:24:42;;;;;;;109.43;51.97;;;6.80;99.90;;;;;;5150941;27;20042;-49
2021/11/17 07:27:18;;;;;;;105.97;51.47;;;6.80;99.90;;;;;;5148990;27;20050;-47
2021/11/17 07:29:45;;;;;;;115.80;52.85;;;6.80;99.90;;;;;;5149246;27;20098;-49
2021/11/17 07:32:12;;;;;;;100.53;49.38;;;6.80;99.90;;;;;;5142829;27;20042;-47
2021/11/17 07:34:38;;;;;;;118.40;54.17;;;6.80;99.90;;;;;;5107313;27;20039;-46
2021/11/17 07:37:04;;;;;;;109.47;51.03;;;6.80;99.90;;;;;;5144623;27;20054;-52
2021/11/17 07:39:30;;;;;;;115.60;52.30;;;6.80;99.90;;;;;;5147787;27;20370;-52
2021/11/17 07:41:56;;;;;;;110.38;52.08;;;6.80;99.90;;;;;;5144402;27;20130;-46
2021/11/17 07:44:23;;;;;;;117.30;50.33;;;6.80;99.90;;;;;;5128954;27;20386;-49
2021/11/17 07:46:53;;;;;;;122.18;52.50;;;6.80;99.90;;;;;;5103859;27;20039;-48
2021/11/17 07:49:23;;;;;;;111.55;52.42;;;6.80;99.90;;;;;;5113649;27;20126;-51
2021/11/17 07:51:49;;;;;;;114.65;52.60;;;6.80;99.90;;;;;;5113965;27;20042;-50
2021/11/17 07:54:17;;;;;;;119.40;54.50;;;6.80;99.90;;;;;;5143692;27;20046;-51
2021/11/17 07:56:43;;;;;;;119.93;54.28;;;6.90;99.90;;;;;;5121915;27;20039;-49
2021/11/17 07:59:13;;;;;;;111.97;52.00;;;6.90;99.90;;;;;;5137040;27;20055;-48
2021/11/17 08:01:42;;;;;;;110.30;50.58;;;6.90;99.90;;;;;;5140265;27;20049;-53
2021/11/17 08:04:10;;;;;;;121.80;52.33;;;6.90;99.90;;;;;;5142002;27;20038;-52
2021/11/17 08:06:36;;;;;;;117.35;52.88;;;7.00;99.90;;;;;;5090771;27;20046;-51
2021/11/17 08:09:02;;;;;;;127.75;54.13;;;6.90;99.90;;;;;;5131325;27;20086;-48
2021/11/17 08:11:29;;;;;;;130.07;55.92;;;7.00;99.90;;;;;;5147959;27;20038;-51
2021/11/17 08:13:55;;;;;;;125.32;53.90;;;7.00;99.90;;;;;;5129717;27;20050;-52
2021/11/17 08:16:21;;;;;;;124.55;52.88;;;7.10;99.90;;;;;;5116396;27;20147;-52
2021/11/17 08:18:47;;;;;;;131.48;54.15;;;7.10;99.90;;;;;;5121902;27;20054;-50
2021/11/17 08:21:15;;;;;;;120.05;53.13;;;7.10;99.90;;;;;;5119628;27;20039;-52
2021/11/17 08:23:41;;;;;;;127.38;55.60;;;7.10;99.90;;;;;;5141368;27;20050;-50
2021/11/17 08:26:08;;;;;;;121.97;53.92;;;7.20;99.90;;;;;;5124385;27;20489;-54
2021/11/17 08:28:34;;;;;;;127.03;54.22;;;7.20;99.90;;;;;;5140841;27;20053;-54
2021/11/17 08:31:00;;;;;;;119.35;55.40;;;7.30;99.90;;;;;;5139171;27;20043;-49
2021/11/17 08:33:27;;;;;;;112.47;54.30;;;7.30;99.90;;;;;;5120545;27;20054;-48
2021/11/17 08:35:53;;;;;;;113.05;52.00;;;7.30;99.90;;;;;;5141414;27;20054;-49
2021/11/17 08:38:22;;;;;;;122.25;51.70;;;7.40;99.90;;;;;;5121037;28;20051;-50
2021/11/17 08:40:55;;;;;;;118.28;52.85;;;7.40;99.90;;;;;;5119204;28;20039;-50
2021/11/17 08:43:22;;;;;;;120.05;54.22;;;7.40;99.90;;;;;;5119345;28;20047;-49
2021/11/17 08:45:49;;;;;;;126.65;55.75;;;7.30;99.90;;;;;;5120778;27;20036;-49
2021/11/17 08:48:16;;;;;;;117.25;55.10;;;7.50;99.90;;;;;;5102898;28;20130;-47
2021/11/17 08:50:43;;;;;;;122.22;54.05;;;7.50;99.90;;;;;;5120550;27;20051;-53
2021/11/17 08:53:12;;;;;;;119.93;54.60;;;7.50;99.90;;;;;;5126687;27;20051;-49
2021/11/17 08:55:41;;;;;;;115.85;51.60;;;7.60;99.90;;;;;;5117141;28;20121;-48
2021/11/17 08:58:08;;;;;;;122.63;54.90;;;7.60;99.90;;;;;;5117366;28;20134;-50
2021/11/17 09:00:35;;;;;;;121.95;52.47;;;7.60;99.90;;;;;;5120079;28;20060;-52
2021/11/17 09:03:03;;;;;;;125.63;53.53;;;7.60;99.90;;;;;;5114173;28;20054;-54
2021/11/17 09:05:34;;;;;;;114.35;50.63;;;7.70;99.90;;;;;;5116311;28;20507;-52
2021/11/17 09:08:00;;;;;;;112.43;51.25;;;7.70;99.90;;;;;;5117459;28;20134;-49
2021/11/17 09:10:30;;;;;;;120.50;53.92;;;7.70;99.90;;;;;;5119363;28;20043;-50
2021/11/17 09:12:56;;;;;;;120.45;55.03;;;7.70;99.90;;;;;;5119377;28;20506;-51
2021/11/17 09:15:26;;;;;;;114.35;52.38;;;7.80;99.90;;;;;;5119016;28;20078;-51
2021/11/17 09:17:52;;;;;;;119.45;53.92;;;7.90;99.90;;;;;;5123070;27;20051;-49
2021/11/17 09:20:20;;;;;;;109.68;50.70;;;7.80;99.90;;;;;;5122067;28;20490;-52
2021/11/17 09:22:47;;;;;;;122.00;54.33;;;7.90;99.90;;;;;;5116779;28;20175;-54
2021/11/17 09:25:14;;;;;;;120.47;53.75;;;7.90;99.90;;;;;;5120975;27;20186;-56
2021/11/17 09:27:41;;;;;;;137.52;55.63;;;7.90;99.90;;;;;;5126871;27;20035;-53
2021/11/17 09:30:11;;;;;;;135.63;54.53;;;7.90;99.90;;;;;;5129404;27;20043;-55
2021/11/17 09:32:37;;;;;;;127.18;52.72;;;8.00;99.90;;;;;;5128685;27;20061;-54
2021/11/17 09:35:09;;;;;;;126.82;51.92;;;8.00;99.90;;;;;;5122585;27;20069;-49
2021/11/17 09:37:36;;;;;;;127.37;50.33;;;8.00;99.90;;;;;;5128151;27;20043;-54
2021/11/17 09:40:04;;;;;;;119.50;47.45;;;8.00;99.90;;;;;;5144565;27;20054;-50
2021/11/17 09:42:30;;;;;;;115.25;48.60;;;8.00;99.90;;;;;;5145518;27;20049;-52
2021/11/17 09:44:56;;;;;;;113.00;47.03;;;8.10;99.90;;;;;;5149808;27;20089;-53
2021/11/17 09:47:24;;;;;;;114.75;47.80;;;8.10;99.90;;;;;;5141655;27;20092;-50
2021/11/17 09:50:15;;;;;;;120.90;49.03;;;8.10;99.90;;;;;;5126445;27;20159;-49
2021/11/17 09:52:49;;;;;;;135.98;49.85;;;8.10;99.90;;;;;;5084089;28;20518;-54
2021/11/17 09:55:29;;;;;;;116.20;47.10;;;8.20;99.90;;;;;;5082906;28;20040;-51
2021/11/17 09:58:12;;;;;;;104.78;45.78;;;8.20;99.90;;;;;;5083363;28;20054;-51
2021/11/17 10:00:51;;;;;;;102.70;43.67;;;8.20;99.90;;;;;;5099620;28;20066;-47
2021/11/17 10:03:29;;;;;;;96.18;44.97;;;8.30;99.90;;;;;;5084052;28;20039;-48
2021/11/17 10:14:48;;;;;;;106.13;45.00;;;8.30;99.90;;;;;;5084908;28;20043;-50
2021/11/17 10:17:35;;;;;;;107.45;44.47;;;8.40;99.90;;;;;;5083374;28;20040;-50
2021/11/17 10:20:57;;;;;;;115.45;47.42;;;8.40;99.90;;;;;;5083431;28;20153;-47
2021/11/17 10:23:29;;;;;;;106.68;41.50;;;8.40;99.90;;;;;;5016694;28;20048;-48
2021/11/17 10:25:57;;;;;;;98.57;42.08;;;8.40;99.90;;;;;;5022015;28;20037;-48
2021/11/17 10:28:26;;;;;;;102.80;44.17;;;8.50;99.90;;;;;;5021935;28;20608;-53
2021/11/17 10:31:15;;;;;;;105.53;45.28;;;8.60;99.90;;;;;;5057576;28;21533;-49
2021/11/17 10:33:47;;;;;;;101.35;43.85;;;8.60;99.90;;;;;;5056064;28;20104;-52
2021/11/17 10:36:13;;;;;;;;;;;8.70;99.90;;;;;;5082027;28;20052;-51
2021/11/17 10:38:45;;;;;;;104.60;43.50;;;8.80;99.90;;;;;;5081294;28;19927;-49
2021/11/17 10:41:22;;;;;;;90.38;41.72;;;8.80;99.90;;;;;;5075869;28;20055;-47
2021/11/17 10:44:09;;;;;;;99.05;44.20;;;8.80;99.90;;;;;;5053274;28;20106;-51
2021/11/17 10:46:52;;;;;;;89.65;40.92;;;9.00;99.90;;;;;;5077700;28;20127;-53
2021/11/17 10:49:25;;;;;;;95.50;41.70;;;9.00;99.90;;;;;;5074861;28;20052;-50
2021/11/17 10:52:03;;;;;;;91.43;40.70;;;9.10;99.90;;;;;;5018218;28;20059;-52
2021/11/17 10:54:32;;;;;;;85.70;39.25;;;9.30;99.90;;;;;;5066865;28;20131;-51
2021/11/17 10:57:12;;;;;;;87.80;39.15;;;9.30;99.90;;;;;;5061769;28;20048;-53
2021/11/17 10:59:39;;;;;;;79.82;37.40;;;9.50;99.90;;;;;;5111114;27;20099;-53
2021/11/17 11:02:07;;;;;;;61.20;34.78;;;9.70;99.90;;;;;;5121577;27;20039;-49
2021/11/17 11:04:49;;;;;;;56.22;30.40;;;10.50;99.90;;;;;;5142970;27;20172;-54
2021/11/17 11:07:29;;;;;;;53.88;29.70;;;11.50;99.90;;;;;;5141435;27;20087;-53
2021/11/17 11:10:23;;;;;;;41.17;26.15;;;12.30;99.90;;;;;;5143341;27;20120;-53
2021/11/17 11:12:51;;;;;;;42.38;26.35;;;12.70;99.90;;;;;;5061010;28;20048;-54
2021/11/17 11:15:31;;;;;;;35.35;24.10;;;13.20;99.90;;;;;;5059014;28;20045;-54
2021/11/17 11:18:09;;;;;;;39.78;24.38;;;13.50;99.90;;;;;;5045441;28;20049;-53
2021/11/17 11:20:45;;;;;;;39.28;24.15;;;13.70;99.90;;;;;;5039894;28;20068;-54
2021/11/17 11:23:16;;;;;;;35.72;23.33;;;14.00;99.90;;;;;;5028232;28;20490;-53
2021/11/17 11:25:50;;;;;;;30.00;20.67;;;14.30;99.90;;;;;;5043850;28;20377;-54
2021/11/17 11:28:19;;;;;;;30.02;20.92;;;14.70;99.90;;;;;;5040078;28;20747;-53
2021/11/17 11:31:12;;;;;;;31.23;21.27;;;14.90;99.90;;;;;;5056523;28;20055;-54
2021/11/17 11:33:49;;;;;;;34.47;20.98;;;15.00;99.90;;;;;;4951500;28;20130;-55
2021/11/17 11:36:15;;;;;;;30.98;20.77;;;15.70;99.90;;;;;;4948818;28;20043;-55
2021/11/17 11:38:55;;;;;;;31.80;19.05;;;16.10;99.90;;;;;;4952780;28;20060;-56
2021/11/17 11:41:36;;;;;;;27.75;17.48;;;16.40;99.90;;;;;;4980726;28;20042;-54
2021/11/17 11:44:20;;;;;;;31.17;17.93;;;16.60;99.90;;;;;;4979354;28;20121;-55
2021/11/17 11:47:08;;;;;;;25.63;15.30;;;16.90;99.90;;;;;;4982483;28;20046;-55
2021/11/17 11:49:42;;;;;;;22.42;14.82;;;17.20;99.90;;;;;;5008930;28;20561;-53
2021/11/17 11:52:23;;;;;;;21.85;13.88;;;17.50;99.90;;;;;;5056504;28;20048;-55
2021/11/17 11:54:53;;;;;;;21.98;12.40;;;17.50;99.90;;;;;;5045543;28;20151;-54
2021/11/17 11:57:34;;;;;;;18.00;11.27;;;17.40;99.90;;;;;;5026860;28;20106;-54
2021/11/17 12:00:11;;;;;;;23.85;10.43;;;17.40;99.90;;;;;;5063920;28;20067;-55
2021/11/17 12:02:42;;;;;;;18.90;9.82;;;16.90;99.90;;;;;;5048776;28;20037;-54
2021/11/17 12:05:12;;;;;;;17.80;9.93;;;17.20;99.90;;;;;;5066241;28;20048;-56
2021/11/17 12:07:48;;;;;;;17.80;8.70;;;17.80;99.90;;;;;;5032085;28;20514;-54
2021/11/17 12:10:26;;;;;;;20.35;8.50;;;17.70;99.90;;;;;;5090065;27;20199;-55
2021/11/17 12:12:53;;;;;;;23.55;8.07;;;17.50;99.90;;;;;;5146558;27;20416;-53
2021/11/17 12:15:34;;;;;;;22.27;7.88;;;17.10;99.90;;;;;;5151130;27;20031;-56
2021/11/17 12:18:18;;;;;;;18.77;9.00;;;17.10;99.90;;;;;;5150322;27;20400;-54
2021/11/17 12:20:59;;;;;;;19.52;7.05;;;16.70;99.90;;;;;;5130880;27;20054;-53
2021/11/17 12:23:38;;;;;;;18.98;7.32;;;17.00;99.90;;;;;;5136774;27;20027;-55
2021/11/17 12:26:19;;;;;;;16.48;6.10;;;17.00;99.90;;;;;;5130638;27;20039;-48
2021/11/17 12:28:55;;;;;;;19.90;6.65;;;17.20;99.90;;;;;;5131164;27;20396;-49
2021/11/17 12:31:26;;;;;;;15.88;5.53;;;17.10;99.90;;;;;;5118245;27;20050;-55
2021/11/17 12:33:59;;;;;;;16.02;5.10;;;17.70;99.90;;;;;;5140789;27;20420;-50
2021/11/17 12:36:33;;;;;;;17.73;4.50;;;17.40;99.90;;;;;;5138668;27;20500;-49
2021/11/17 12:39:16;;;;;;;19.52;5.28;;;17.30;99.90;;;;;;5142551;27;20050;-48
2021/11/17 12:41:44;;;;;;;17.40;3.80;;;16.90;99.90;;;;;;5142411;27;20042;-49
2021/11/17 12:44:41;;;;;;;20.58;4.25;;;16.20;99.90;;;;;;5142166;27;20042;-48
2021/11/17 12:47:41;;;;;;;9.05;3.10;;;16.20;98.40;;;;;;5140068;27;20459;-55
2021/11/17 12:50:24;;;;;;;12.13;3.53;;;16.70;98.70;;;;;;5142900;27;20138;-53
2021/11/17 12:53:08;;;;;;;15.35;3.33;;;16.70;91.40;;;;;;5141262;27;20050;-55
2021/11/17 12:55:44;;;;;;;19.15;5.20;;;17.30;85.70;;;;;;5122419;27;20043;-54
2021/11/17 12:58:39;;;;;;;15.25;3.65;;;17.20;86.10;;;;;;5126134;27;20047;-53
2021/11/17 13:01:29;;;;;;;14.20;3.60;;;17.50;76.30;;;;;;5133648;27;20294;-49
2021/11/17 13:04:13;;;;;;;13.38;3.08;;;17.50;77.80;;;;;;5146301;27;20039;-47
2021/11/17 13:06:41;;;;;;;14.48;3.13;;;17.60;74.40;;;;;;5147255;27;20039;-49
2021/11/17 13:09:07;;;;;;;21.13;3.47;;;17.60;81.10;;;;;;5126982;27;20077;-48
2021/11/17 13:11:44;;;;;;;12.70;3.30;;;17.70;84.00;;;;;;5110019;27;20035;-48
2021/11/17 13:14:50;;;;;;;11.18;2.45;;;17.70;81.70;;;;;;5150389;27;20058;-49
2021/11/17 13:17:22;;;;;;;13.50;3.58;;;17.70;72.20;;;;;;5050638;28;20048;-52
2021/11/17 13:19:51;;;;;;;;;;;17.20;72.00;;;;;;5064738;28;20049;-56
2021/11/17 13:22:31;;;;;;;14.70;2.97;;;17.20;69.00;;;;;;5065568;28;19955;-51
2021/11/17 13:25:21;;;;;;;12.45;3.00;;;17.70;69.40;;;;;;5053685;28;20049;-53
2021/11/17 13:27:52;;;;;;;14.68;2.92;;;18.00;66.90;;;;;;5066852;28;20063;-48
2021/11/17 13:30:39;;;;;;;12.73;3.00;;;18.20;67.10;;;;;;5068748;28;20045;-49
2021/11/17 13:33:31;;;;;;;10.68;2.75;;;18.20;65.30;;;;;;5068986;28;20821;-50
2021/11/17 13:36:10;;;;;;;10.45;2.85;;;17.00;61.50;;;;;;5066476;28;20455;-51
2021/11/17 13:38:40;;;;;;;11.98;2.97;;;16.70;63.70;;;;;;5065913;28;20064;-53
2021/11/17 13:41:09;;;;;;;14.05;3.30;;;16.90;71.30;;;;;;5032822;28;20162;-52
2021/11/17 13:43:38;;;;;;;11.00;2.72;;;16.90;69.80;;;;;;5056366;28;20036;-52
2021/11/17 13:46:08;;;;;;;16.42;3.50;;;16.60;69.20;;;;;;5052106;28;20677;-50
2021/11/17 13:48:39;;;;;;;15.45;3.22;;;16.80;70.50;;;;;;5058775;28;20649;-48
2021/11/17 13:51:06;;;;;;;10.38;2.38;;;16.60;70.60;;;;;;5053499;28;20047;-48
2021/11/17 13:53:33;;;;;;;13.52;2.80;;;16.20;72.00;;;;;;5094344;27;20054;-47
2021/11/17 13:56:10;;;;;;;11.90;3.05;;;16.50;74.70;;;;;;5147578;27;20055;-49
2021/11/17 13:58:38;;;;;;;13.30;2.75;;;16.40;75.10;;;;;;5143003;27;20125;-47
2021/11/17 14:01:05;;;;;;;10.70;2.55;;;16.60;72.70;;;;;;5113854;27;20035;-46
2021/11/17 14:03:32;;;;;;;14.63;3.15;;;16.80;73.80;;;;;;5114919;27;20043;-51
2021/11/17 14:06:03;;;;;;;16.92;3.42;;;16.80;70.50;;;;;;5114554;27;20126;-54
2021/11/17 14:08:33;;;;;;;14.73;3.13;;;16.80;69.30;;;;;;5109848;27;20177;-53
2021/11/17 14:10:59;;;;;;;12.95;3.40;;;16.60;66.40;;;;;;5153127;27;20050;-54
2021/11/17 14:13:26;;;;;;;11.35;2.92;;;16.80;68.40;;;;;;5135350;27;20050;-52
2021/11/17 14:15:52;;;;;;;12.60;4.75;;;16.50;72.00;;;;;;5151420;27;20114;-52
2021/11/17 14:18:19;;;;;;;12.27;3.13;;;16.10;73.30;;;;;;5144752;27;20043;-53
2021/11/17 14:20:46;;;;;;;16.02;3.80;;;15.30;79.20;;;;;;5132802;27;20047;-50
2021/11/17 14:23:14;;;;;;;11.55;2.88;;;14.70;88.10;;;;;;5143592;27;20057;-52
2021/11/17 14:25:45;;;;;;;11.40;2.42;;;14.00;92.00;;;;;;5114146;27;20053;-50
2021/11/17 14:28:40;;;;;;;13.20;2.83;;;13.60;96.80;;;;;;5134666;27;20732;-50
2021/11/17 14:31:21;;;;;;;11.80;2.53;;;13.60;99.90;;;;;;5068382;28;20086;-48
2021/11/17 14:33:56;;;;;;;13.88;2.70;;;13.50;99.90;;;;;;5055633;28;20471;-49
2021/11/17 14:36:25;;;;;;;12.70;2.83;;;13.60;99.90;;;;;;5052368;28;20056;-50
2021/11/17 14:38:51;;;;;;;14.30;3.15;;;14.00;99.90;;;;;;5041930;28;20460;-51
2021/11/17 14:41:18;;;;;;;14.10;2.90;;;14.20;97.30;;;;;;5030222;28;20407;-51
2021/11/17 14:43:44;;;;;;;11.88;2.28;;;14.00;99.30;;;;;;5032685;28;20055;-48
2021/11/17 14:46:12;;;;;;;13.68;2.78;;;13.70;99.90;;;;;;5016946;28;20137;-48
2021/11/17 14:48:39;;;;;;;10.80;2.55;;;13.10;99.90;;;;;;5040801;28;20102;-48
2021/11/17 14:51:06;;;;;;;10.73;2.75;;;12.70;99.90;;;;;;5019902;28;20080;-48
2021/11/17 14:53:32;;;;;;;8.02;2.20;;;12.50;99.90;;;;;;5041121;28;20056;-48
2021/11/17 14:55:58;;;;;;;11.95;2.53;;;12.20;99.90;;;;;;5039046;28;20127;-44
2021/11/17 14:58:24;;;;;;;11.73;2.47;;;11.80;99.90;;;;;;5006881;28;20616;-46
2021/11/17 15:00:55;;;;;;;12.57;2.53;;;11.60;99.90;;;;;;5035822;28;20048;-48
2021/11/17 15:03:21;;;;;;;9.32;2.00;;;11.30;99.90;;;;;;5040107;28;20123;-48
2021/11/17 15:05:48;;;;;;;9.07;2.15;;;11.20;99.90;;;;;;5039581;28;20041;-50
2021/11/17 15:08:15;;;;;;;9.07;2.55;;;11.10;99.90;;;;;;5083006;28;20123;-48
2021/11/17 15:10:42;;;;;;;7.03;1.98;;;10.90;99.90;;;;;;5108507;28;20052;-47
2021/11/17 15:13:08;;;;;;;11.00;2.03;;;10.80;99.90;;;;;;5107943;28;20036;-49
2021/11/17 15:15:38;;;;;;;11.75;2.05;;;10.80;99.90;;;;;;5107462;28;20040;-49
2021/11/17 15:18:06;;;;;;;8.23;1.67;;;10.70;99.90;;;;;;5101105;28;20047;-52
2021/11/17 15:20:35;;;;;;;8.73;1.60;;;10.60;99.90;;;;;;5083954;28;20044;-49
2021/11/17 15:23:02;;;;;;;9.10;2.17;;;10.40;99.90;;;;;;5094658;28;20118;-48
2021/11/17 15:25:32;;;;;;;7.68;1.75;;;10.30;99.90;;;;;;5098004;28;20050;-48
2021/11/17 15:28:21;;;;;;;10.88;1.58;;;10.20;99.90;;;;;;5100711;28;20032;-47
2021/11/17 15:30:52;;;;;;;10.25;2.03;;;10.00;99.90;;;;;;5130936;27;20050;-57
2021/11/17 15:33:18;;;;;;;6.38;1.67;;;10.00;99.90;;;;;;5103921;28;20040;-45
2021/11/17 15:35:45;;;;;;;9.60;2.00;;;9.90;99.90;;;;;;5084334;28;20047;-46
2021/11/17 15:38:12;;;;;;;10.00;2.65;;;9.80;99.90;;;;;;5109293;27;20051;-48
2021/11/17 15:40:42;;;;;;;10.18;1.88;;;9.60;99.90;;;;;;5139161;27;20050;-48
2021/11/17 15:43:09;;;;;;;8.63;2.50;;;9.60;99.90;;;;;;5100490;27;20517;-45
2021/11/17 15:45:35;;;;;;;8.50;2.08;;;9.50;99.90;;;;;;5146991;27;20070;-50
2021/11/17 15:48:03;;;;;;;11.32;2.53;;;9.40;99.90;;;;;;5081120;27;20046;-48
2021/11/17 15:50:36;;;;;;;14.23;2.38;;;9.30;99.90;;;;;;5123794;27;20705;-50